createdAt,value
2017-12-24T00:02:24.996Z,7.23
2017-12-24T00:04:52.476Z,6.10
2017-12-24T00:07:19.956Z,6.33
2017-12-24T00:09:47.427Z,5.80
2017-12-24T00:12:14.878Z,7.20
2017-12-24T00:14:42.346Z,6.67
2017-12-24T00:17:09.814Z,6.17
2017-12-24T00:19:37.359Z,6.40
2017-12-24T00:22:04.814Z,5.63
2017-12-24T00:24:32.287Z,5.70
2017-12-24T00:26:59.773Z,6.20
2017-12-24T00:29:27.229Z,5.40
2017-12-24T00:31:54.689Z,5.30
2017-12-24T00:34:22.146Z,5.62
2017-12-24T00:36:49.616Z,8.57
2017-12-24T00:39:17.075Z,5.97
2017-12-24T00:41:44.521Z,6.53
2017-12-24T00:44:12.022Z,6.33
2017-12-24T00:46:39.464Z,5.53
2017-12-24T00:49:06.928Z,6.57
2017-12-24T00:51:34.397Z,5.23
2017-12-24T00:54:01.867Z,5.45
2017-12-24T00:56:29.345Z,5.70
2017-12-24T00:58:56.823Z,7.30
2017-12-24T01:01:24.308Z,5.17
2017-12-24T01:03:51.793Z,5.03
2017-12-24T01:06:19.418Z,5.45
2017-12-24T01:08:47.889Z,5.35
2017-12-24T01:11:15.345Z,5.25
2017-12-24T01:13:42.810Z,5.60
2017-12-24T01:16:10.254Z,5.23
2017-12-24T01:18:37.738Z,5.27
2017-12-24T01:21:05.223Z,4.97
2017-12-24T01:23:32.704Z,5.62
2017-12-24T01:26:00.192Z,5.57
2017-12-24T01:28:27.689Z,5.18
2017-12-24T01:30:55.148Z,5.20
2017-12-24T01:33:22.596Z,4.87
2017-12-24T01:35:50.082Z,5.05
2017-12-24T01:38:17.537Z,5.23
2017-12-24T01:40:44.996Z,6.07
2017-12-24T01:43:12.453Z,5.07
2017-12-24T01:45:39.902Z,4.70
2017-12-24T01:48:07.353Z,4.97
2017-12-24T01:50:34.831Z,4.87
2017-12-24T01:53:02.310Z,4.97
2017-12-24T01:55:29.788Z,5.03
2017-12-24T01:57:57.226Z,4.00
2017-12-24T02:00:24.740Z,5.30
2017-12-24T02:02:52.224Z,4.90
2017-12-24T02:05:19.678Z,5.13
2017-12-24T02:07:47.164Z,4.97
2017-12-24T02:10:14.645Z,5.40
2017-12-24T02:12:42.191Z,5.45
2017-12-24T02:15:10.459Z,5.37
2017-12-24T02:17:37.960Z,4.90
2017-12-24T02:20:05.450Z,5.62
2017-12-24T02:22:32.914Z,5.87
2017-12-24T02:25:00.398Z,4.80
2017-12-24T02:27:27.857Z,4.97
2017-12-24T02:29:55.396Z,5.10
2017-12-24T02:32:22.816Z,5.00
2017-12-24T02:34:50.292Z,4.60
2017-12-24T02:37:17.754Z,5.00
2017-12-24T02:39:45.257Z,5.12
2017-12-24T02:42:12.733Z,5.30
2017-12-24T02:44:40.205Z,5.72
2017-12-24T02:47:07.681Z,5.33
2017-12-24T02:49:35.193Z,5.50
2017-12-24T02:52:02.723Z,5.40
2017-12-24T02:54:30.185Z,6.03
2017-12-24T02:56:57.673Z,9.23
2017-12-24T02:59:25.957Z,4.53
2017-12-24T03:01:53.440Z,5.03
2017-12-24T03:04:20.935Z,4.45
2017-12-24T03:06:48.416Z,4.70
2017-12-24T03:09:15.893Z,5.20
2017-12-24T03:11:43.366Z,4.87
2017-12-24T03:14:10.856Z,3.80
2017-12-24T03:16:38.355Z,4.60
2017-12-24T03:19:05.813Z,5.60
2017-12-24T03:21:33.277Z,4.82
2017-12-24T03:24:00.732Z,5.72
2017-12-24T03:26:28.206Z,4.87
2017-12-24T03:28:55.661Z,5.70
2017-12-24T03:31:23.126Z,5.97
2017-12-24T03:33:50.614Z,4.68
2017-12-24T03:36:18.097Z,5.10
2017-12-24T03:38:45.562Z,5.03
2017-12-24T03:41:13.056Z,5.30
2017-12-24T03:43:40.544Z,5.15
2017-12-24T03:46:08.004Z,4.60
2017-12-24T03:48:35.469Z,5.13
2017-12-24T03:51:02.935Z,4.50
2017-12-24T03:53:30.446Z,4.00
2017-12-24T03:55:57.905Z,4.68
2017-12-24T03:58:25.360Z,4.60
2017-12-24T04:00:52.820Z,4.53
2017-12-24T04:03:20.289Z,4.53
2017-12-24T04:05:47.771Z,4.37
2017-12-24T04:08:15.232Z,4.90
2017-12-24T04:10:42.676Z,4.90
2017-12-24T04:13:10.160Z,4.93
2017-12-24T04:15:37.613Z,4.43
2017-12-24T04:18:05.096Z,4.53
2017-12-24T04:20:32.558Z,4.60
2017-12-24T04:23:00.002Z,4.60
2017-12-24T04:25:27.479Z,4.43
2017-12-24T04:27:54.933Z,5.37
2017-12-24T04:30:22.443Z,4.70
2017-12-24T04:32:49.904Z,4.53
2017-12-24T04:35:17.384Z,4.90
2017-12-24T04:37:44.989Z,4.90
2017-12-24T04:40:12.531Z,5.20
2017-12-24T04:42:39.997Z,4.87
2017-12-24T04:45:07.472Z,4.53
2017-12-24T04:47:34.934Z,5.87
2017-12-24T04:50:02.415Z,4.30
2017-12-24T04:52:29.892Z,5.35
2017-12-24T04:54:57.365Z,5.55
2017-12-24T04:57:24.816Z,4.90
2017-12-24T04:59:52.292Z,7.13
2017-12-24T05:02:19.768Z,5.10
2017-12-24T05:04:47.224Z,4.67
2017-12-24T05:07:14.705Z,4.03
2017-12-24T05:09:42.172Z,5.13
2017-12-24T05:12:09.621Z,4.53
2017-12-24T05:14:37.080Z,4.70
2017-12-24T05:17:04.525Z,4.50
2017-12-24T05:19:31.996Z,4.17
2017-12-24T05:21:59.476Z,4.70
2017-12-24T05:24:26.903Z,4.40
2017-12-24T05:26:54.459Z,4.70
2017-12-24T05:29:21.919Z,4.70
2017-12-24T05:31:49.409Z,4.70
2017-12-24T05:34:16.856Z,4.70
2017-12-24T05:36:44.323Z,4.90
2017-12-24T05:39:11.819Z,4.70
2017-12-24T05:41:39.306Z,4.57
2017-12-24T05:44:06.786Z,4.67
2017-12-24T05:46:34.244Z,4.33
2017-12-24T05:49:01.706Z,4.40
2017-12-24T05:51:29.204Z,4.75
2017-12-24T05:53:56.728Z,4.60
2017-12-24T05:56:24.146Z,4.43
2017-12-24T05:58:51.605Z,4.78
2017-12-24T06:01:19.065Z,5.43
2017-12-24T06:03:46.553Z,5.15
2017-12-24T06:06:14.002Z,4.80
2017-12-24T06:08:41.488Z,4.90
2017-12-24T06:11:08.948Z,4.50
2017-12-24T06:13:36.476Z,6.10
2017-12-24T06:16:03.943Z,4.70
2017-12-24T06:18:31.428Z,4.90
2017-12-24T06:20:58.898Z,4.93
2017-12-24T06:23:26.361Z,4.22
2017-12-24T06:25:53.832Z,5.00
2017-12-24T06:28:21.298Z,4.83
2017-12-24T06:30:48.769Z,4.50
2017-12-24T06:33:16.261Z,4.90
2017-12-24T06:35:43.733Z,4.60
2017-12-24T06:38:11.198Z,5.12
2017-12-24T06:40:38.683Z,5.10
2017-12-24T06:43:06.141Z,4.95
2017-12-24T06:45:33.636Z,5.10
2017-12-24T06:48:01.116Z,4.70
2017-12-24T06:50:28.591Z,4.05
2017-12-24T06:52:56.063Z,4.30
2017-12-24T06:55:23.520Z,4.53
2017-12-24T06:57:50.994Z,4.50
2017-12-24T07:00:18.476Z,4.62
2017-12-24T07:02:45.956Z,4.87
2017-12-24T07:05:13.448Z,4.57
2017-12-24T07:07:40.905Z,5.22
2017-12-24T07:10:08.412Z,14.77
2017-12-24T07:12:35.891Z,4.60
2017-12-24T07:15:03.345Z,5.35
2017-12-24T07:17:30.840Z,5.20
2017-12-24T07:19:58.307Z,7.13
2017-12-24T07:22:25.796Z,5.72
2017-12-24T07:24:53.262Z,4.53
2017-12-24T07:27:20.758Z,5.12
2017-12-24T07:29:48.247Z,4.50
2017-12-24T07:32:15.709Z,4.15
2017-12-24T07:34:43.199Z,4.72
2017-12-24T07:37:10.664Z,4.83
2017-12-24T07:39:38.283Z,4.68
2017-12-24T07:42:05.768Z,4.45
2017-12-24T07:44:33.227Z,6.03
2017-12-24T07:47:00.685Z,5.10
2017-12-24T07:49:28.157Z,6.70
2017-12-24T07:51:55.635Z,5.10
2017-12-24T07:54:23.108Z,5.30
2017-12-24T07:56:50.561Z,4.77
2017-12-24T07:59:18.047Z,5.10
2017-12-24T08:01:45.497Z,6.17
2017-12-24T08:04:12.959Z,5.30
2017-12-24T08:06:40.449Z,5.50
2017-12-24T08:09:07.927Z,7.47
2017-12-24T08:11:35.412Z,5.07
2017-12-24T08:14:02.868Z,5.00
2017-12-24T08:16:30.317Z,6.00
2017-12-24T08:18:57.781Z,5.83
2017-12-24T08:21:25.246Z,5.37
2017-12-24T08:23:52.724Z,5.40
2017-12-24T08:26:20.182Z,5.07
2017-12-24T08:28:47.652Z,5.17
2017-12-24T08:31:15.128Z,6.07
2017-12-24T08:33:42.586Z,9.75
2017-12-24T08:36:10.067Z,5.07
2017-12-24T08:38:37.514Z,4.33
2017-12-24T08:41:04.980Z,4.87
2017-12-24T08:43:32.459Z,4.73
2017-12-24T08:45:59.933Z,4.57
2017-12-24T08:48:27.402Z,6.53
2017-12-24T08:50:54.849Z,4.50
2017-12-24T08:53:22.318Z,4.10
2017-12-24T08:55:49.793Z,4.50
2017-12-24T08:58:17.262Z,4.50
2017-12-24T09:00:44.753Z,6.03
2017-12-24T09:03:12.206Z,4.50
2017-12-24T09:05:39.667Z,4.30
2017-12-24T09:08:07.128Z,3.70
2017-12-24T09:10:34.592Z,4.33
2017-12-24T09:13:02.048Z,4.60
2017-12-24T09:15:29.517Z,4.07
2017-12-24T09:17:57.028Z,4.70
2017-12-24T09:20:24.483Z,4.23
2017-12-24T09:22:51.933Z,8.40
2017-12-24T09:25:19.413Z,4.43
2017-12-24T09:27:46.884Z,4.10
2017-12-24T09:30:14.329Z,3.57
2017-12-24T09:32:41.810Z,3.90
2017-12-24T09:35:09.233Z,4.53
2017-12-24T09:37:36.724Z,4.10
2017-12-24T09:40:04.184Z,3.70
2017-12-24T09:42:31.643Z,4.00
2017-12-24T09:44:59.116Z,3.93
2017-12-24T09:47:26.584Z,3.87
2017-12-24T09:49:54.041Z,3.53
2017-12-24T09:52:21.505Z,4.03
2017-12-24T09:54:48.959Z,4.00
2017-12-24T09:57:16.434Z,3.80
2017-12-24T09:59:43.874Z,4.30
2017-12-24T10:02:11.334Z,4.13
2017-12-24T10:04:38.808Z,3.57
2017-12-24T10:07:06.284Z,4.37
2017-12-24T10:09:33.745Z,4.73
2017-12-24T10:12:01.217Z,4.70
2017-12-24T10:14:28.686Z,3.93
2017-12-24T10:16:56.148Z,3.90
2017-12-24T10:19:23.606Z,4.00
2017-12-24T10:21:51.068Z,4.57
2017-12-24T10:24:18.533Z,3.97
2017-12-24T10:26:46.020Z,4.43
2017-12-24T10:29:13.465Z,5.73
2017-12-24T10:31:40.935Z,4.10
2017-12-24T10:34:08.405Z,3.90
2017-12-24T10:36:35.877Z,4.73
2017-12-24T10:39:03.354Z,4.10
2017-12-24T10:41:30.821Z,4.80
2017-12-24T10:43:58.276Z,4.60
2017-12-24T10:46:25.753Z,4.30
2017-12-24T10:48:53.225Z,4.13
2017-12-24T10:51:20.690Z,4.10
2017-12-24T10:53:48.155Z,4.33
2017-12-24T10:56:15.628Z,4.63
2017-12-24T10:58:43.099Z,6.43
2017-12-24T11:01:10.564Z,4.67
2017-12-24T11:03:38.032Z,4.50
2017-12-24T11:06:05.488Z,4.80
2017-12-24T11:08:32.941Z,4.60
2017-12-24T11:11:00.415Z,4.07
2017-12-24T11:13:27.897Z,7.97
2017-12-24T11:15:55.361Z,5.23
2017-12-24T11:18:22.832Z,4.70
2017-12-24T11:20:50.286Z,4.77
2017-12-24T11:23:17.761Z,3.90
2017-12-24T11:25:45.235Z,4.40
2017-12-24T11:28:12.701Z,4.40
2017-12-24T11:30:40.154Z,5.10
2017-12-24T11:33:07.593Z,4.03
2017-12-24T11:35:35.074Z,3.80
2017-12-24T11:38:02.544Z,4.10
2017-12-24T11:40:30.017Z,3.73
2017-12-24T11:42:57.473Z,3.97
2017-12-24T11:45:24.945Z,3.80
2017-12-24T11:47:52.424Z,3.90
2017-12-24T11:50:19.891Z,4.67
2017-12-24T11:52:47.377Z,4.33
2017-12-24T11:55:14.839Z,4.00
2017-12-24T11:57:42.280Z,3.60
2017-12-24T12:00:09.752Z,3.80
2017-12-24T12:02:37.202Z,3.90
2017-12-24T12:05:04.684Z,4.30
2017-12-24T12:07:32.134Z,4.17
2017-12-24T12:09:59.600Z,4.70
2017-12-24T12:12:27.079Z,4.07
2017-12-24T12:14:54.526Z,4.57
2017-12-24T12:17:22.010Z,3.53
2017-12-24T12:19:49.454Z,4.47
2017-12-24T12:22:16.919Z,4.27
2017-12-24T12:24:44.396Z,4.80
2017-12-24T12:27:11.845Z,4.40
2017-12-24T12:29:39.308Z,3.93
2017-12-24T12:32:06.771Z,4.37
2017-12-24T12:34:34.248Z,4.07
2017-12-24T12:37:01.724Z,3.80
2017-12-24T12:39:29.177Z,3.80
2017-12-24T12:41:56.660Z,4.33
2017-12-24T12:44:24.107Z,3.70
2017-12-24T12:46:51.557Z,3.73
2017-12-24T12:49:19.017Z,3.80
2017-12-24T12:51:46.494Z,4.23
2017-12-24T12:54:13.972Z,5.50
2017-12-24T12:56:41.439Z,4.37
2017-12-24T12:59:08.908Z,4.37
2017-12-24T13:01:36.389Z,3.83
2017-12-24T13:04:03.838Z,4.23
2017-12-24T13:06:31.312Z,4.60
2017-12-24T13:08:58.780Z,4.33
2017-12-24T13:11:26.257Z,3.83
2017-12-24T13:13:53.731Z,7.73
2017-12-24T13:16:21.191Z,3.93
2017-12-24T13:18:48.662Z,6.23
2017-12-24T13:21:16.120Z,3.53
2017-12-24T13:23:43.584Z,3.50
2017-12-24T13:26:11.050Z,4.10
2017-12-24T13:28:38.497Z,3.77
2017-12-24T13:31:05.972Z,3.70
2017-12-24T13:33:33.440Z,3.67
2017-12-24T13:36:00.904Z,3.90
2017-12-24T13:38:28.358Z,4.10
2017-12-24T13:40:55.842Z,4.10
2017-12-24T13:43:23.311Z,3.63
2017-12-24T13:45:50.762Z,4.50
2017-12-24T13:48:18.217Z,3.70
2017-12-24T13:50:45.692Z,4.30
2017-12-24T13:53:13.141Z,4.00
2017-12-24T13:55:40.623Z,4.60
2017-12-24T13:58:08.099Z,3.97
2017-12-24T14:00:35.574Z,3.90
2017-12-24T14:03:03.053Z,4.87
2017-12-24T14:05:30.541Z,4.10
2017-12-24T14:07:58.036Z,4.60
2017-12-24T14:10:25.509Z,6.77
2017-12-24T14:12:52.976Z,4.80
2017-12-24T14:15:20.434Z,4.53
2017-12-24T14:17:47.882Z,4.23
2017-12-24T14:20:15.350Z,4.07
2017-12-24T14:22:42.801Z,5.83
2017-12-24T14:25:10.257Z,4.90
2017-12-24T14:27:37.737Z,4.30
2017-12-24T14:30:05.207Z,4.30
2017-12-24T14:32:32.691Z,6.17
2017-12-24T14:35:00.142Z,7.13
2017-12-24T14:37:27.589Z,6.43
2017-12-24T14:39:55.067Z,6.40
2017-12-24T14:42:22.540Z,6.43
2017-12-24T14:44:50.021Z,8.83
2017-12-24T14:47:17.473Z,6.40
2017-12-24T14:49:44.940Z,6.23
2017-12-24T14:52:12.412Z,7.33
2017-12-24T14:54:39.881Z,6.23
2017-12-24T14:57:07.360Z,6.03
2017-12-24T14:59:34.805Z,6.43
2017-12-24T15:02:02.271Z,6.00
2017-12-24T15:04:29.760Z,6.10
2017-12-24T15:06:57.209Z,6.47
2017-12-24T15:09:24.668Z,6.33
2017-12-24T15:11:52.134Z,6.10
2017-12-24T15:14:19.610Z,6.80
2017-12-24T15:16:47.094Z,10.00
2017-12-24T15:19:14.581Z,6.67
2017-12-24T15:21:42.042Z,5.97
2017-12-24T15:24:09.501Z,7.50
2017-12-24T15:26:36.955Z,7.43
2017-12-24T15:29:04.432Z,5.70
2017-12-24T15:31:31.912Z,5.80
2017-12-24T15:33:59.392Z,5.60
2017-12-24T15:36:26.856Z,5.53
2017-12-24T15:38:54.332Z,5.43
2017-12-24T15:41:21.786Z,4.80
2017-12-24T15:43:49.247Z,5.50
2017-12-24T15:46:16.722Z,5.45
2017-12-24T15:48:44.205Z,4.17
2017-12-24T15:51:11.661Z,4.50
2017-12-24T15:53:39.131Z,5.20
2017-12-24T15:56:06.605Z,4.60
2017-12-24T15:58:34.062Z,4.40
2017-12-24T16:01:01.605Z,5.40
2017-12-24T16:03:29.083Z,5.10
2017-12-24T16:05:56.530Z,5.00
2017-12-24T16:08:24.004Z,5.20
2017-12-24T16:10:51.484Z,5.22
2017-12-24T16:13:18.938Z,4.93
2017-12-24T16:15:46.414Z,12.23
2017-12-24T16:18:13.867Z,5.60
2017-12-24T16:20:41.329Z,5.30
2017-12-24T16:23:08.801Z,5.28
2017-12-24T16:25:36.268Z,4.90
2017-12-24T16:28:03.717Z,5.13
2017-12-24T16:30:31.189Z,4.67
2017-12-24T16:32:58.638Z,5.10
2017-12-24T16:35:26.118Z,5.15
2017-12-24T16:37:53.596Z,6.05
2017-12-24T16:40:21.057Z,5.30
2017-12-24T16:42:48.529Z,5.80
2017-12-24T16:45:16.013Z,5.13
2017-12-24T16:47:43.468Z,5.20
2017-12-24T16:50:10.917Z,5.40
2017-12-24T16:52:38.400Z,5.15
2017-12-24T16:55:05.935Z,5.72
2017-12-24T16:57:33.419Z,4.77
2017-12-24T17:00:00.913Z,6.00
2017-12-24T17:02:28.399Z,11.57
2017-12-24T17:04:55.876Z,5.70
2017-12-24T17:07:23.373Z,5.50
2017-12-24T17:09:50.847Z,6.05
2017-12-24T17:12:18.293Z,6.10
2017-12-24T17:14:45.780Z,6.75
2017-12-24T17:17:13.263Z,5.80
2017-12-24T17:19:40.763Z,5.95
2017-12-24T17:22:08.237Z,5.83
2017-12-24T17:24:35.689Z,6.15
2017-12-24T17:27:03.184Z,6.75
2017-12-24T17:29:30.644Z,6.55
2017-12-24T17:31:58.109Z,6.50
2017-12-24T17:34:25.557Z,6.25
2017-12-24T17:36:52.996Z,5.53
2017-12-24T17:39:20.483Z,7.12
2017-12-24T17:41:47.942Z,5.53
2017-12-24T17:44:15.416Z,5.85
2017-12-24T17:46:42.884Z,6.82
2017-12-24T17:49:10.358Z,8.55
2017-12-24T17:51:37.822Z,6.18
2017-12-24T17:54:05.297Z,6.90
2017-12-24T17:56:32.766Z,6.80
2017-12-24T17:59:00.223Z,7.05
2017-12-24T18:01:27.703Z,6.43
2017-12-24T18:03:55.189Z,6.47
2017-12-24T18:06:22.664Z,12.07
2017-12-24T18:08:50.132Z,14.45
2017-12-24T18:11:17.598Z,6.95
2017-12-24T18:13:45.086Z,7.40
2017-12-24T18:16:12.541Z,7.82
2017-12-24T18:18:39.999Z,7.37
2017-12-24T18:21:07.473Z,7.47
2017-12-24T18:23:34.935Z,8.07
2017-12-24T18:26:02.420Z,7.05
2017-12-24T18:28:29.868Z,7.35
2017-12-24T18:30:57.314Z,6.80
2017-12-24T18:33:24.785Z,7.85
2017-12-24T18:35:52.267Z,7.62
2017-12-24T18:38:19.737Z,8.18
2017-12-24T18:40:47.196Z,12.05
2017-12-24T18:43:14.648Z,7.50
2017-12-24T18:45:42.109Z,7.50
2017-12-24T18:48:09.569Z,7.43
2017-12-24T18:50:37.063Z,8.70
2017-12-24T18:53:04.527Z,6.62
2017-12-24T18:55:31.977Z,6.45
2017-12-24T18:57:59.441Z,9.15
2017-12-24T19:00:26.901Z,7.57
2017-12-24T19:02:54.368Z,9.90
2017-12-24T19:05:21.816Z,8.73
2017-12-24T19:07:49.272Z,10.40
2017-12-24T19:10:16.743Z,10.63
2017-12-24T19:12:44.220Z,11.80
2017-12-24T19:15:11.697Z,11.60
2017-12-24T19:17:39.152Z,11.65
2017-12-24T19:20:06.622Z,10.48
2017-12-24T19:22:34.089Z,11.02
2017-12-24T19:25:01.544Z,10.23
2017-12-24T19:27:29.035Z,12.95
2017-12-24T19:29:56.507Z,10.35
2017-12-24T19:32:23.980Z,8.82
2017-12-24T19:34:51.464Z,8.07
2017-12-24T19:37:18.917Z,7.50
2017-12-24T19:39:46.401Z,12.05
2017-12-24T19:42:13.879Z,10.05
2017-12-24T19:44:41.328Z,9.63
2017-12-24T19:47:08.803Z,7.95
2017-12-24T19:49:36.260Z,10.23
2017-12-24T19:52:03.747Z,7.87
2017-12-24T19:54:31.209Z,15.40
2017-12-24T19:56:58.670Z,8.38
2017-12-24T19:59:26.151Z,8.95
2017-12-24T20:01:53.621Z,10.02
2017-12-24T20:04:21.091Z,9.13
2017-12-24T20:06:48.550Z,9.75
2017-12-24T20:09:16.020Z,12.80
2017-12-24T20:11:43.500Z,9.43
2017-12-24T20:14:10.979Z,31.35
2017-12-24T20:16:38.448Z,16.90
2017-12-24T20:19:05.935Z,23.55
2017-12-24T20:21:33.416Z,17.20
2017-12-24T20:24:00.906Z,18.90
2017-12-24T20:26:28.365Z,19.95
2017-12-24T20:28:55.855Z,23.08
2017-12-24T20:31:23.335Z,26.92
2017-12-24T20:33:50.816Z,20.90
2017-12-24T20:36:18.281Z,18.90
2017-12-24T20:38:45.751Z,24.15
2017-12-24T20:41:13.246Z,22.15
2017-12-24T20:43:40.723Z,22.85
2017-12-24T20:46:08.176Z,18.80
2017-12-24T20:48:35.663Z,21.08
2017-12-24T20:51:03.130Z,19.58
2017-12-24T20:53:30.628Z,15.20
2017-12-24T20:55:58.084Z,12.35
2017-12-24T20:58:25.550Z,14.70
2017-12-24T21:00:53.017Z,10.98
2017-12-24T21:03:20.460Z,9.73
2017-12-24T21:05:47.951Z,12.13
2017-12-24T21:08:15.443Z,17.65
2017-12-24T21:10:42.920Z,12.52
2017-12-24T21:13:10.399Z,10.25
2017-12-24T21:15:37.875Z,12.63
2017-12-24T21:18:05.353Z,12.45
2017-12-24T21:20:32.809Z,14.57
2017-12-24T21:23:00.293Z,17.33
2017-12-24T21:25:27.779Z,14.68
2017-12-24T21:27:55.252Z,13.07
2017-12-24T21:30:22.726Z,11.88
2017-12-24T21:32:50.189Z,13.05
2017-12-24T21:35:17.671Z,12.10
2017-12-24T21:37:45.139Z,12.68
2017-12-24T21:40:12.588Z,18.15
2017-12-24T21:42:40.057Z,15.63
2017-12-24T21:45:07.509Z,10.48
2017-12-24T21:47:34.987Z,11.00
2017-12-24T21:50:02.472Z,12.93
2017-12-24T21:52:29.933Z,14.15
2017-12-24T21:54:57.413Z,12.77
2017-12-24T21:57:24.872Z,12.40
2017-12-24T21:59:52.396Z,23.90
2017-12-24T22:02:19.884Z,11.00
2017-12-24T22:04:47.336Z,16.17
2017-12-24T22:07:14.821Z,12.82
2017-12-24T22:09:42.276Z,13.07
2017-12-24T22:12:09.752Z,12.00
2017-12-24T22:14:37.213Z,10.50
2017-12-24T22:17:04.677Z,10.88
2017-12-24T22:19:32.176Z,11.38
2017-12-24T22:21:59.668Z,10.13
2017-12-24T22:24:27.151Z,12.52
2017-12-24T22:26:54.614Z,12.37
2017-12-24T22:29:22.088Z,10.60
2017-12-24T22:31:49.562Z,13.85
2017-12-24T22:34:17.033Z,12.73
2017-12-24T22:36:44.515Z,12.30
2017-12-24T22:39:11.992Z,11.63
2017-12-24T22:41:39.449Z,9.85
2017-12-24T22:44:06.938Z,11.30
2017-12-24T22:46:34.423Z,10.18
2017-12-24T22:49:01.887Z,9.70
2017-12-24T22:51:29.349Z,11.55
2017-12-24T22:53:56.804Z,11.63
2017-12-24T22:56:24.278Z,13.25
2017-12-24T22:58:51.751Z,12.93
2017-12-24T23:01:19.248Z,11.82
2017-12-24T23:03:46.724Z,12.93
2017-12-24T23:06:14.185Z,12.18
2017-12-24T23:08:41.671Z,11.10
2017-12-24T23:11:09.150Z,11.02
2017-12-24T23:13:36.640Z,14.10
2017-12-24T23:16:04.106Z,24.40
2017-12-24T23:18:31.591Z,23.30
2017-12-24T23:20:59.064Z,17.95
2017-12-24T23:23:26.540Z,20.67
2017-12-24T23:25:54.015Z,13.82
2017-12-24T23:28:21.491Z,14.90
2017-12-24T23:30:48.967Z,13.45
2017-12-24T23:33:16.456Z,12.00
2017-12-24T23:35:43.933Z,12.07
2017-12-24T23:38:11.401Z,12.85
2017-12-24T23:40:38.880Z,12.27
2017-12-24T23:43:06.363Z,14.02
2017-12-24T23:45:33.856Z,12.20
2017-12-24T23:48:01.348Z,12.23
2017-12-24T23:50:28.831Z,10.57
2017-12-24T23:52:56.293Z,13.10
2017-12-24T23:55:23.823Z,12.65
2017-12-24T23:57:51.294Z,12.95
